Strona główna
METAR-TAF:

METAR-TAF

Lotnisko :

Lotnisko Chopina w Warszawie

Warszawa, Polska

Szerokość geograficzna: 52-10N, Długość geograficzna: 020-58E, wysokość: 106 m

Aktualna obserwacja pogody

Raport powstał 20 minut temu, godzina 13:00 UTC
Wiatr 3 kt od południowo-południowy wschód
Temperatura 20°C
Wilgotność 40%
Ciśnienie 1021 hPa
Widzialność 10 km lub więcej
Brak chmur poniżej 1500 m i brak chmur cumulonimbus

METAR: EPWA 161300Z 16003KT CAVOK 20/06 Q1021 NOSIG

czas: 15:20 (13:20 UTC)

Prognoza

Raport powstał 1 godzina i 50 minut temu, godzina 11:30 UTC
Prognoza ważna od 16 godzina 12 UTC do 17 godzina 12 UTC
Wiatr 5 kt z kierunków zmiennych
Widzialność 10 km lub więcej
Brak chmur poniżej 1500 m i brak chmur cumulonimbus
Prawdopodobieństwo 40%
od 16 godzina 23 UTC do 17 godzina 06 UTC
Widzialność: 4000 m
zamglenie
Prawdopodobieństwo 30% :
Przejściowo
od 17 godzina 03 UTC do 17 godzina 06 UTC
Widzialność: 2000 m
zamglenie

TAF: EPWA 161130Z 1612/1712 VRB05KT CAVOK PROB40 1623/1706 4000 BR PROB30 TEMPO 1703/1706 2000 BR

Obserwacja i prognoza pogody dla ponad 4000 lotnisk (raport METAR i TAF).

Dostępne stacje oznaczono żółtymi i czerwonymi punktami na mapie.

Najedź kursorem aby zobaczyć nazwę stacji.

Kliknij aby zobaczyć obserwacje i prognozy pogody.

Aby zmienić mapę: kliknij na zielony przycisk z czarnym krzyżykiem, aby powiększyć; na zielony przycisk z myślnikiem, aby pomniejszyć; na zielone strzałki, aby przejść do map sąsiednich.


METAR-TAF: